Latest Weather Observations for Parafield

IDS60801

Issued at 6:35 pm CST Tuesday 22 July 2014 (issued every 30 minutes, with the page automatically refreshed every 10 minutes)

About weather observations | Map of weather stations | Latest weather observations for SA | Other Formats
Station Details ID: 023013 Name: PARAFIELD AIRPORT Lat: -34.80 Lon: 138.63 Height: 9.5 m
Data from the previous 72 hours. | See also: Recent months at Parafield
Date/Time
CST
Temp
°C
App
Temp
°C
Dew
Point
Rel
Hum
%
Delta-T
°C
Wind Press
QNH
hPa
Press
MSL
hPa
Rain
since 9 am
mm
Dir
 
Spd
km/h
Gust
km/h
Spd
kts
Gust
kts
22/06:30pm 11.0 7.8 5.3 68 2.6 NE 11 15 6 8 1021.2 - 0.0
22/06:00pm 12.1 9.0 5.5 64 3.1 NE 11 13 6 7 1021.1 1021.1 0.0
22/05:30pm 13.2 9.7 5.6 60 3.6 NE 13 17 7 9 1021.2 - 0.0
22/05:00pm 15.3 11.8 5.5 52 4.7 NE 13 20 7 11 1020.9 - 0.0
22/04:30pm 16.6 12.4 5.6 48 5.3 NE 17 20 9 11 1020.7 - 0.0
22/04:00pm 17.5 14.1 6.1 47 5.6 NE 13 19 7 10 1020.7 - 0.0
22/03:30pm 17.9 14.1 5.8 45 5.9 N 15 20 8 11 1020.8 - 0.0
22/03:00pm 18.2 13.6 5.4 43 6.2 N 19 30 10 16 1021.0 1021.0 0.0
22/02:30pm 18.2 13.5 5.1 42 6.3 NNE 19 24 10 13 1021.0 - 0.0
22/02:00pm 18.1 13.0 3.9 39 6.7 NNE 20 28 11 15 1021.1 - 0.0
22/01:30pm 18.1 13.7 5.0 42 6.3 NNE 17 28 9 15 1021.4 - 0.0
22/01:00pm 18.0 12.9 3.1 37 6.9 NNE 19 24 10 13 1021.9 - 0.0
22/12:30pm 17.7 13.2 4.3 41 6.3 NNE 17 22 9 12 1022.3 - 0.0
22/12:00pm 18.1 14.4 6.3 46 5.8 NNE 15 - 8 - - 1023.0 -
22/10:30am 16.0 13.4 6.2 52 4.8 N 9 13 5 7 1024.2 - 0.0
22/10:00am 14.6 13.0 6.2 57 4.0 NW 4 11 2 6 1024.3 - 0.0
22/09:30am 10.9 10.2 6.8 76 1.9 CALM 0 0 0 0 1024.2 - 0.0
22/09:00am 9.1 8.4 7.1 87 0.9 CALM 0 0 0 0 1024.1 1024.1 0.0
22/08:30am 6.5 5.5 5.6 94 0.4 CALM 0 0 0 0 1023.9 - 0.0
22/08:00am 3.9 2.5 3.3 96 0.2 CALM 0 0 0 0 1023.8 - 0.0
22/07:30am 2.2 0.5 1.6 96 0.2 CALM 0 0 0 0 1023.9 - 0.0
22/07:00am 2.0 0.2 1.4 96 0.2 CALM 0 0 0 0 1023.5 - 0.0
22/06:30am 1.4 -1.6 0.7 95 0.3 SW 6 9 3 5 1023.1 - 0.0
22/06:00am 1.8 0.0 1.2 96 0.2 SSE 0 0 0 0 1022.8 1022.8 0.0
22/05:30am 2.7 1.0 2.1 96 0.2 CALM 0 0 0 0 1022.8 - 0.0
22/05:00am 2.8 1.2 2.2 96 0.2 CALM 0 0 0 0 1022.8 - 0.0
22/04:30am 3.1 1.5 2.5 96 0.2 CALM 0 0 0 0 1022.8 - 0.0
22/04:11am 2.8 1.2 2.2 96 0.2 CALM 0 0 0 0 1022.7 - 0.0
22/04:00am 2.8 1.2 2.2 96 0.2 CALM 0 0 0 0 1022.7 - 0.0
22/03:48am 2.3 0.6 1.6 95 0.3 WSW 0 0 0 0 1022.7 - 0.0
22/03:30am 2.6 0.9 1.9 95 0.3 CALM 0 0 0 0 1022.6 - 0.0
22/03:00am 3.9 2.5 3.3 96 0.2 CALM 0 0 0 0 1022.6 1022.6 0.0
22/02:30am 3.9 2.5 3.3 96 0.2 CALM 0 0 0 0 1022.8 - 0.0
22/02:00am 3.9 2.5 3.3 96 0.2 CALM 0 0 0 0 1022.8 - 0.0
22/01:30am 4.2 2.8 3.5 95 0.3 CALM 0 0 0 0 1022.9 - 0.0
22/01:00am 3.7 2.2 3.0 95 0.3 CALM 0 0 0 0 1022.9 - 0.0
22/12:30am 3.6 2.0 2.7 94 0.4 CALM 0 0 0 0 1023.0 - 0.0
22/12:00am 4.9 3.6 4.0 94 0.4 N 0 0 0 0 1023.0 1023.0 0.0
 
Date/Time
CST
Temp
°C
App
Temp
°C
Dew
Point
Rel
Hum
%
Delta-T
°C
Wind Press
QNH
hPa
Press
MSL
hPa
Rain
since 9 am
mm
Dir
 
Spd
km/h
Gust
km/h
Spd
kts
Gust
kts
21/11:30pm 4.9 3.6 3.9 93 0.4 CALM 0 6 0 3 1022.9 - 0.0
21/11:00pm 5.1 3.8 3.9 92 0.5 CALM 0 0 0 0 1023.0 - 0.0
21/10:30pm 5.8 4.6 4.6 92 0.5 CALM 0 0 0 0 1023.0 - 0.0
21/10:00pm 6.1 4.9 4.7 91 0.6 CALM 0 0 0 0 1023.1 - 0.0
21/09:30pm 5.7 4.4 4.2 90 0.6 CALM 0 0 0 0 1023.1 - 0.0
21/09:00pm 6.8 5.2 4.6 86 0.9 ENE 2 6 1 3 1022.9 1022.9 0.0
21/08:30pm 6.9 4.9 4.2 83 1.2 NE 4 7 2 4 1022.7 - 0.0
21/08:00pm 7.6 5.4 5.2 85 1.1 NE 6 7 3 4 1022.7 - 0.0
21/07:30pm 8.7 6.6 5.8 82 1.3 E 6 6 3 3 1022.4 - 0.0
21/07:00pm 7.9 5.7 5.2 83 1.2 E 6 7 3 4 1022.3 - 0.0
21/06:30pm 9.4 7.2 5.2 75 1.9 E 6 7 3 4 1022.1 - 0.0
21/06:00pm 11.0 9.9 5.3 68 2.6 CALM 0 4 0 2 1021.8 1021.8 0.0
21/05:30pm 12.6 10.2 5.1 60 3.5 N 7 9 4 5 1021.7 - 0.0
21/05:00pm 13.0 9.9 5.7 61 3.4 N 11 15 6 8 1021.3 - 0.0
21/04:30pm 15.1 12.6 6.4 56 4.2 N 9 15 5 8 1021.1 - 0.0
21/04:00pm 14.3 11.0 6.6 60 3.7 N 13 15 7 8 1020.9 - 0.0
21/03:30pm 15.0 11.9 5.5 53 4.5 N 11 15 6 8 1020.7 - 0.0
21/03:00pm 16.0 12.7 6.2 52 4.7 NNW 13 20 7 11 1020.7 1020.7 0.0
21/02:30pm 16.2 13.9 5.5 49 5.1 N 7 13 4 7 1020.8 - 0.0
21/02:00pm 16.3 13.8 4.7 46 5.5 NNW 7 15 4 8 1020.9 - 0.0
21/01:30pm 15.8 12.3 5.4 50 5.0 N 13 17 7 9 1021.1 - 0.0
21/01:00pm 16.0 12.9 5.6 50 5.0 N 11 19 6 10 1021.5 - 0.0
21/12:30pm 15.6 12.2 6.1 53 4.6 NNW 13 20 7 11 1021.8 - 0.0
21/12:00pm 15.4 11.7 6.1 54 4.5 N 15 24 8 13 1022.3 1022.3 0.0
21/11:30am 15.2 11.4 6.0 54 4.4 N 15 22 8 12 1022.9 - 0.0
21/11:00am 14.1 9.7 4.9 54 4.3 N 17 22 9 12 1023.0 - 0.0
21/10:30am 13.7 8.8 5.1 56 4.0 N 20 26 11 14 1023.0 - 0.0
21/10:00am 13.4 8.5 4.3 54 4.2 N 19 22 10 12 1023.1 - 0.0
21/09:30am 13.7 9.2 4.3 53 4.3 NNE 17 26 9 14 1023.1 - 0.0
21/09:00am 12.8 9.7 5.7 62 3.3 NE 11 13 6 7 1022.9 1022.9 0.0
21/08:30am 11.0 7.0 4.7 65 2.8 NE 15 17 8 9 1022.8 - 0.0
21/08:00am 10.1 6.4 4.7 69 2.4 NE 13 17 7 9 1022.7 - 0.0
21/07:30am 9.8 5.7 4.6 70 2.3 NE 15 17 8 9 1022.5 - 0.0
21/07:00am 10.4 6.3 4.5 67 2.6 NE 15 20 8 11 1022.4 - 0.0
21/06:30am 9.9 5.6 5.1 72 2.2 NE 17 20 9 11 1022.3 - 0.0
21/06:00am 10.0 5.6 5.0 71 2.2 NE 17 20 9 11 1022.2 1022.2 0.0
21/05:30am 9.8 5.4 4.6 70 2.3 NE 17 20 9 11 1022.1 - 0.0
21/05:00am 10.0 5.2 4.4 68 2.5 NNE 19 24 10 13 1022.3 - 0.0
21/04:30am 10.1 5.7 4.7 69 2.4 NNE 17 20 9 11 1022.3 - 0.0
21/04:00am 9.5 5.5 4.9 73 2.1 NNE 15 24 8 13 1022.2 - 0.0
21/03:30am 9.7 5.7 4.9 72 2.2 NNE 15 19 8 10 1022.1 - 0.0
21/03:00am 10.2 5.8 5.0 70 2.3 NNE 17 24 9 13 1022.2 1022.2 0.0
21/02:30am 10.3 6.0 5.1 70 2.4 NE 17 22 9 12 1022.3 - 0.0
21/02:00am 9.3 5.6 4.7 73 2.0 NE 13 17 7 9 1022.3 - 0.0
21/01:30am 9.7 5.7 4.9 72 2.2 NE 15 20 8 11 1022.6 - 0.0
21/01:00am 9.2 6.0 5.0 75 1.9 NNE 11 15 6 8 1022.8 - 0.0
21/12:30am 9.1 6.3 5.3 77 1.7 NNE 9 13 5 7 1023.2 - 0.0
21/12:00am 9.7 6.2 5.3 74 2.0 NE 13 17 7 9 1023.6 1023.6 0.0
 
Date/Time
CST
Temp
°C
App
Temp
°C
Dew
Point
Rel
Hum
%
Delta-T
°C
Wind Press
QNH
hPa
Press
MSL
hPa
Rain
since 9 am
mm
Dir
 
Spd
km/h
Gust
km/h
Spd
kts
Gust
kts
20/11:30pm 9.9 6.0 5.3 73 2.1 NE 15 19 8 10 1023.6 - 0.0
20/11:00pm 9.9 6.0 5.5 74 2.0 NE 15 17 8 9 1023.6 - 0.0
20/10:30pm 10.2 7.5 5.8 74 2.0 NNE 9 13 5 7 1023.8 - 0.0
20/10:00pm 9.9 6.5 5.9 76 1.8 NE 13 19 7 10 1023.8 - 0.0
20/09:30pm 9.9 7.3 6.1 77 1.8 NNE 9 11 5 6 1024.3 - 0.0
20/09:00pm 10.2 7.7 6.4 77 1.8 NE 9 13 5 7 1024.5 1024.5 0.0
20/08:30pm 10.6 7.4 6.7 77 1.8 NNE 13 15 7 8 1024.5 - 0.0
20/08:00pm 10.4 7.2 6.9 79 1.7 NE 13 15 7 8 1024.3 - 0.0
20/07:30pm 10.5 6.9 6.8 78 1.7 NE 15 17 8 9 1024.2 - 0.0
20/07:00pm 10.7 7.9 7.0 78 1.8 ENE 11 17 6 9 1024.2 - 0.0
20/06:30pm 11.0 9.1 7.5 79 1.7 NE 7 11 4 6 1024.3 - 0.0
20/06:00pm 11.1 10.5 7.6 79 1.7 CALM 0 0 0 0 1024.3 1024.3 0.0
20/05:30pm 11.2 10.3 7.7 79 1.7 NNW 2 6 1 3 1024.2 - 0.0
20/05:00pm 11.9 10.2 7.4 74 2.2 NW 6 7 3 4 1024.2 - 0.0
20/04:30pm 12.6 10.3 7.3 70 2.6 NW 9 11 5 6 1024.1 - 0.0
20/04:00pm 12.8 10.4 7.0 68 2.8 NW 9 13 5 7 1023.8 - 0.0
20/03:30pm 13.4 10.1 6.5 63 3.3 N 13 22 7 12 1023.8 - 0.0
20/03:00pm 13.7 11.2 8.1 69 2.8 N 11 15 6 8 1023.9 1023.9 0.0
20/02:30pm 14.0 10.8 6.8 62 3.5 NNE 13 20 7 11 1024.2 - 0.0
20/02:00pm 14.4 11.1 7.9 65 3.2 NNE 15 20 8 11 1024.3 - 0.0
20/01:30pm 13.0 9.8 6.8 66 3.0 NNE 13 15 7 8 1024.7 - 0.0
20/01:00pm 13.3 9.7 6.9 65 3.1 NNE 15 22 8 12 1025.2 - 0.0
20/12:30pm 13.1 8.6 6.2 63 3.3 NNE 19 26 10 14 1025.8 - 0.0
20/12:00pm 13.0 7.9 5.9 62 3.3 NNE 22 28 12 15 1026.4 1026.4 0.0
20/11:30am 12.6 8.9 6.4 66 2.9 NNE 15 20 8 11 1027.0 - 0.0
20/11:00am 11.5 7.8 6.2 70 2.5 NE 15 19 8 10 1027.4 - 0.0
20/10:30am 10.6 6.1 6.2 74 2.0 NE 19 24 10 13 1027.8 - 0.0
20/10:00am 10.4 8.9 6.9 79 1.7 ENE 4 13 2 7 1028.1 - 0.0
20/09:30am 8.3 7.5 6.3 87 0.9 CALM 0 0 0 0 1028.2 - 0.0
20/09:00am 6.6 5.2 5.4 92 0.5 E 2 6 1 3 1028.3 1028.2 0.0
20/08:30am 5.8 4.7 5.1 95 0.3 CALM 0 7 0 4 1028.2 - 0.0
20/08:00am 3.7 2.2 3.0 95 0.3 CALM 0 0 0 0 1028.1 - 0.0
20/07:30am 3.2 1.6 2.5 95 0.3 CALM 0 0 0 0 1027.9 - 0.0
20/07:00am 3.6 1.3 2.7 94 0.4 E 4 7 2 4 1027.9 - 0.0
20/06:30am 4.2 2.7 3.2 93 0.4 CALM 0 0 0 0 1027.8 - 0.0
20/06:00am 5.0 2.5 4.0 93 0.4 N 6 7 3 4 1027.8 1027.7 0.0
20/05:30am 4.6 1.9 3.7 94 0.4 NE 7 7 4 4 1027.6 - 0.0
20/05:00am 4.1 2.2 3.1 93 0.4 NE 2 6 1 3 1027.6 - 0.0
20/04:30am 4.5 3.1 3.3 92 0.5 CALM 0 0 0 0 1027.6 - 0.0
20/04:00am 5.0 1.9 3.8 92 0.5 E 9 17 5 9 1027.4 - 0.0
20/03:30am 3.6 0.9 2.6 93 0.4 ESE 6 9 3 5 1027.4 - 0.0
20/03:00am 3.7 2.1 2.7 93 0.4 CALM 0 0 0 0 1027.7 1027.6 0.0
20/02:30am 3.7 1.0 2.7 93 0.4 E 6 7 3 4 1027.7 - 0.0
20/02:00am 4.1 2.6 2.8 91 0.5 CALM 0 4 0 2 1028.0 - 0.0
20/01:30am 4.3 1.7 3.0 91 0.5 NNE 6 7 3 4 1028.2 - 0.0
20/01:00am 4.3 1.6 2.7 89 0.6 ENE 6 11 3 6 1028.5 - 0.0
20/12:30am 6.0 3.5 4.0 87 0.8 N 6 6 3 3 1028.9 - 0.0
20/12:00am 6.0 3.3 3.5 84 1.0 E 7 13 4 7 1029.0 1028.9 0.0
 
Date/Time
CST
Temp
°C
App
Temp
°C
Dew
Point
Rel
Hum
%
Delta-T
°C
Wind Press
QNH
hPa
Press
MSL
hPa
Rain
since 9 am
mm
Dir
 
Spd
km/h
Gust
km/h
Spd
kts
Gust
kts
19/11:30pm 5.6 2.9 2.9 83 1.1 ESE 6 7 3 4 1029.2 - 0.0
19/11:00pm 7.5 4.9 3.4 75 1.7 ENE 6 9 3 5 1029.4 - 0.0
19/10:30pm 8.0 5.3 3.7 74 1.8 NE 7 11 4 6 1029.2 - 0.0
19/10:00pm 6.4 3.7 3.7 83 1.1 ENE 7 9 4 5 1029.4 - 0.0
19/09:30pm 5.7 2.6 3.4 85 1.0 ENE 9 11 5 6 1029.6 - 0.0
19/09:00pm 6.2 3.0 3.2 81 1.2 E 9 13 5 7 1029.7 1029.6 0.0
19/08:30pm 6.8 4.7 3.9 82 1.2 ESE 4 6 2 3 1029.9 - 0.0
19/08:00pm 6.8 3.8 4.1 83 1.2 ESE 9 11 5 6 1030.3 - 0.0
19/07:30pm 7.4 4.8 4.2 80 1.4 ESE 7 9 4 5 1030.5 - 0.0
19/07:00pm 7.8 5.4 5.3 84 1.1 E 7 7 4 4 1030.4 - 0.0

Other Formats:

Comma delimited format used in spreadsheet applications
http://www.bom.gov.au/fwo/IDS60801/IDS60801.95677.axf

JavaScript Object Notation format (JSON) in row-major order
http://www.bom.gov.au/fwo/IDS60801/IDS60801.95677.json